createdAt,value
2023-05-05T00:03:08.796Z,7.65
2023-05-05T00:09:51.442Z,7.68
2023-05-05T00:16:33.981Z,7.97
2023-05-05T00:23:17.075Z,7.40
2023-05-05T00:29:59.331Z,6.95
2023-05-05T00:36:42.430Z,8.27
2023-05-05T00:43:24.704Z,8.32
2023-05-05T00:50:09.384Z,7.93
2023-05-05T00:56:52.265Z,7.53
2023-05-05T01:03:39.521Z,9.00
2023-05-05T01:10:40.639Z,7.90
2023-05-05T01:17:38.597Z,7.38
2023-05-05T01:24:43.754Z,7.80
2023-05-05T01:31:54.867Z,8.48
2023-05-05T01:38:41.119Z,8.10
2023-05-05T01:45:26.556Z,8.27
2023-05-05T01:52:10.209Z,8.60
2023-05-05T01:58:54.645Z,9.07
2023-05-05T02:05:39.437Z,9.95
2023-05-05T02:12:23.065Z,9.85
2023-05-05T02:19:05.832Z,10.63
2023-05-05T02:25:55.642Z,9.68
2023-05-05T02:32:41.029Z,10.13
2023-05-05T02:39:38.308Z,10.13
2023-05-05T02:46:27.424Z,9.82
2023-05-05T02:53:09.841Z,10.48
2023-05-05T03:00:19.181Z,10.57
2023-05-05T03:07:09.976Z,9.75
2023-05-05T03:14:01.050Z,10.60
2023-05-05T03:20:43.781Z,11.00
2023-05-05T03:27:28.179Z,10.43
2023-05-05T03:34:10.989Z,10.05
2023-05-05T03:41:03.298Z,11.27
2023-05-05T03:47:46.922Z,8.80
2023-05-05T03:54:29.392Z,9.13
2023-05-05T04:01:12.408Z,9.68
2023-05-05T04:07:57.703Z,10.88
2023-05-05T04:14:41.124Z,10.77
2023-05-05T04:21:24.688Z,10.68
2023-05-05T04:28:07.140Z,11.50
2023-05-05T04:34:49.557Z,9.85
2023-05-05T04:41:32.798Z,10.75
2023-05-05T04:48:15.499Z,10.52
2023-05-05T04:54:58.140Z,9.75
2023-05-05T05:01:41.149Z,10.48
2023-05-05T05:08:24.212Z,10.93
2023-05-05T05:15:07.488Z,10.05
2023-05-05T05:21:49.895Z,9.35
2023-05-05T05:28:32.340Z,8.85
2023-05-05T05:35:15.130Z,8.88
2023-05-05T05:41:57.915Z,8.30
2023-05-05T05:48:40.855Z,6.38
2023-05-05T05:55:23.847Z,6.22
2023-05-05T06:02:07.592Z,5.68
2023-05-05T06:08:49.987Z,6.38
2023-05-05T06:15:32.436Z,6.20
2023-05-05T06:22:16.806Z,5.90
2023-05-05T06:28:59.818Z,7.68
2023-05-05T06:35:42.131Z,7.75
2023-05-05T06:42:24.458Z,6.85
2023-05-05T06:49:08.361Z,6.43
2023-05-05T06:55:50.642Z,6.30
2023-05-05T07:02:33.770Z,6.18
2023-05-05T07:09:17.467Z,6.43
2023-05-05T07:16:00.257Z,6.50
2023-05-05T07:22:42.592Z,6.10
2023-05-05T07:29:24.839Z,5.70
2023-05-05T07:36:07.496Z,6.55
2023-05-05T07:42:49.842Z,6.53
2023-05-05T07:49:32.391Z,6.90
2023-05-05T07:56:14.780Z,6.18
2023-05-05T08:02:57.123Z,5.72
2023-05-05T08:09:39.644Z,5.50
2023-05-05T08:16:22.035Z,6.28
2023-05-05T08:23:06.244Z,5.90
2023-05-05T08:29:48.521Z,5.97
2023-05-05T08:36:31.003Z,5.95
2023-05-05T08:43:13.397Z,4.85
2023-05-05T08:49:56.076Z,5.47
2023-05-05T08:56:41.769Z,5.07
2023-05-05T09:03:26.217Z,3.70
2023-05-05T09:10:09.464Z,3.78
2023-05-05T09:16:51.848Z,3.00
2023-05-05T09:23:34.322Z,2.80
2023-05-05T09:30:23.881Z,3.00
2023-05-05T09:37:06.529Z,2.90
2023-05-05T09:43:54.043Z,2.85
2023-05-05T09:50:44.052Z,3.22
2023-05-05T09:57:32.337Z,4.53
2023-05-05T10:04:30.692Z,2.80
2023-05-05T10:11:14.000Z,2.20
2023-05-05T10:18:06.670Z,2.60
2023-05-05T10:25:13.543Z,3.10
2023-05-05T10:32:14.037Z,2.10
2023-05-05T10:39:06.810Z,2.60
2023-05-05T10:45:49.460Z,2.33
2023-05-05T10:52:45.133Z,2.45
2023-05-05T10:59:36.687Z,3.17
2023-05-05T11:06:19.254Z,2.40
2023-05-05T11:13:02.385Z,2.42
2023-05-05T11:19:46.625Z,2.70
2023-05-05T11:26:51.196Z,2.85
2023-05-05T11:33:38.305Z,2.25
2023-05-05T11:40:26.859Z,2.47
2023-05-05T11:47:09.118Z,2.40
2023-05-05T11:53:51.391Z,2.55
2023-05-05T12:00:33.926Z,2.58
2023-05-05T12:07:20.990Z,2.58
2023-05-05T12:14:10.490Z,1.83
2023-05-05T12:20:52.925Z,1.75
2023-05-05T12:27:35.768Z,1.67
2023-05-05T12:34:19.148Z,1.90
2023-05-05T12:41:02.311Z,1.60
2023-05-05T12:47:45.022Z,2.38
2023-05-05T12:54:30.395Z,1.92
2023-05-05T13:01:12.773Z,2.03
2023-05-05T13:07:55.105Z,2.15
2023-05-05T13:14:37.946Z,2.13
2023-05-05T13:21:20.503Z,2.28
2023-05-05T13:28:02.790Z,2.20
2023-05-05T13:34:45.310Z,2.05
2023-05-05T13:41:27.717Z,2.10
2023-05-05T13:48:09.989Z,2.00
2023-05-05T13:54:52.396Z,2.38
2023-05-05T14:01:34.962Z,2.40
2023-05-05T14:08:18.240Z,2.38
2023-05-05T14:15:00.731Z,2.20
2023-05-05T14:21:42.998Z,2.28
2023-05-05T14:28:25.552Z,1.98
2023-05-05T14:35:08.011Z,2.10
2023-05-05T14:41:50.416Z,2.10
2023-05-05T14:48:33.922Z,2.35
2023-05-05T14:55:16.272Z,2.25
2023-05-05T15:01:58.701Z,2.05
2023-05-05T15:08:40.977Z,2.10
2023-05-05T15:15:23.320Z,2.00
2023-05-05T15:22:05.623Z,2.05
2023-05-05T15:28:50.167Z,2.28
2023-05-05T15:35:32.745Z,2.17
2023-05-05T15:42:15.262Z,2.13
2023-05-05T15:48:57.595Z,2.65
2023-05-05T15:55:40.231Z,2.55
2023-05-05T16:02:22.654Z,4.00
2023-05-05T16:09:05.084Z,3.67
2023-05-05T16:15:47.424Z,5.60
2023-05-05T16:22:29.749Z,5.78
2023-05-05T16:29:12.561Z,5.43
2023-05-05T16:35:54.911Z,4.65
2023-05-05T16:42:37.213Z,5.32
2023-05-05T16:49:19.570Z,6.05
2023-05-05T16:56:01.939Z,4.60
2023-05-05T17:02:44.279Z,4.80
2023-05-05T17:09:27.247Z,3.17
2023-05-05T17:16:09.613Z,2.20
2023-05-05T17:22:51.977Z,2.10
2023-05-05T17:29:40.445Z,2.22
2023-05-05T17:36:22.961Z,1.90
2023-05-05T17:43:05.274Z,2.20
2023-05-05T17:49:51.714Z,2.00
2023-05-05T17:56:35.897Z,2.28
2023-05-05T18:03:18.331Z,2.10
2023-05-05T18:10:00.739Z,2.17
2023-05-05T18:16:48.610Z,1.90
2023-05-05T18:23:30.930Z,1.90
2023-05-05T18:30:13.632Z,2.35
2023-05-05T18:36:57.040Z,1.80
2023-05-05T18:43:39.534Z,1.90
2023-05-05T18:50:22.294Z,1.90
2023-05-05T18:57:04.741Z,2.20
2023-05-05T19:03:48.144Z,2.30
2023-05-05T19:10:30.491Z,2.47
2023-05-05T19:17:12.751Z,2.47
2023-05-05T19:23:55.076Z,2.80
2023-05-05T19:30:37.593Z,3.15
2023-05-05T19:37:20.453Z,2.83
2023-05-05T19:44:03.197Z,2.50
2023-05-05T19:50:45.580Z,3.15
2023-05-05T19:57:28.129Z,3.47
2023-05-05T20:04:10.526Z,3.88
2023-05-05T20:10:52.886Z,3.83
2023-05-05T20:17:35.423Z,3.78
2023-05-05T20:24:17.785Z,4.32
2023-05-05T20:31:03.516Z,4.53
2023-05-05T20:37:46.021Z,3.80
2023-05-05T20:44:28.312Z,4.15
2023-05-05T20:51:10.670Z,4.15
2023-05-05T20:57:52.967Z,5.50
2023-05-05T21:04:35.846Z,3.72
2023-05-05T21:11:18.141Z,4.80
2023-05-05T21:18:00.686Z,4.90
2023-05-05T21:24:43.073Z,4.55
2023-05-05T21:31:25.400Z,4.22
2023-05-05T21:38:08.186Z,4.00
2023-05-05T21:44:50.821Z,4.32
2023-05-05T21:51:34.409Z,4.32
2023-05-05T21:58:16.752Z,5.22
2023-05-05T22:04:59.102Z,5.15
2023-05-05T22:11:41.523Z,4.75
2023-05-05T22:18:23.820Z,5.82
2023-05-05T22:25:06.667Z,6.65
2023-05-05T22:31:49.123Z,6.15
2023-05-05T22:38:31.541Z,6.07
2023-05-05T22:45:14.020Z,5.68
2023-05-05T22:51:57.166Z,6.30
2023-05-05T22:58:39.420Z,6.45
2023-05-05T23:05:22.018Z,5.90
2023-05-05T23:12:04.441Z,6.07
2023-05-05T23:18:46.680Z,6.40
2023-05-05T23:25:28.976Z,5.60
2023-05-05T23:32:11.223Z,6.25
2023-05-05T23:38:53.497Z,5.05
2023-05-05T23:45:35.775Z,4.15
2023-05-05T23:52:18.096Z,4.43
2023-05-05T23:59:00.496Z,4.22
